Time;durP1;ratioP1;P1;durP2;ratioP2;P2;SDS_P1;SDS_P2;PMS_P1;PMS_P2;Temp;Humidity;BMP_temperature;BMP_pressure;BME280_temperature;BME280_humidity;BME280_pressure;Samples;Min_cycle;Max_cycle;Signal;HPM_P1;HPM_P2
2021/01/30 00:00:18;;;;;;;0.15;0.15;;;;;;;-5.96;92.61;99205.53;1736547;80;21095;-51
2021/01/30 00:02:46;;;;;;;0.10;0.10;;;;;;;-6.00;92.62;99204.32;1727283;82;21152;-51
2021/01/30 00:05:14;;;;;;;0.00;0.00;;;;;;;-6.07;92.58;99211.76;1752294;81;21588;-51
2021/01/30 00:07:41;;;;;;;0.00;0.00;;;;;;;-6.19;92.54;99212.55;1729168;82;21164;-51
2021/01/30 00:10:10;;;;;;;3.10;0.65;;;;;;;-6.19;92.54;99212.55;1730122;81;21154;-51
2021/01/30 00:12:38;;;;;;;0.00;0.00;;;;;;;-6.26;92.06;99208.54;1732142;81;21767;-51
2021/01/30 00:15:07;;;;;;;0.08;0.08;;;;;;;-6.36;92.28;99207.59;1728826;82;21135;-51
2021/01/30 00:17:35;;;;;;;0.00;0.00;;;;;;;-6.43;92.24;99215.23;1730115;81;21238;-51
2021/01/30 00:20:05;;;;;;;0.00;0.00;;;;;;;-6.63;92.22;99219.97;1741057;81;21581;-51
2021/01/30 00:22:32;;;;;;;0.10;0.10;;;;;;;-6.63;92.22;99219.97;1734982;81;21163;-52
2021/01/30 00:25:00;;;;;;;0.00;0.00;;;;;;;-6.81;92.38;99215.70;1729864;82;21116;-51
2021/01/30 00:27:27;;;;;;;0.15;0.15;;;;;;;-6.81;92.38;99215.70;1736895;81;21169;-51
2021/01/30 00:29:55;;;;;;;0.10;0.10;;;;;;;-6.84;92.46;99218.25;1778309;80;22058;-51
2021/01/30 00:32:22;;;;;;;0.10;0.10;;;;;;;-6.89;92.65;99209.23;1740652;81;21230;-51
2021/01/30 00:34:50;;;;;;;0.00;0.00;;;;;;;-6.92;92.69;99220.55;1728815;81;21162;-51
2021/01/30 00:37:23;;;;;;;0.00;0.00;;;;;;;-6.98;92.73;99217.34;1729522;82;21146;-51
2021/01/30 00:39:52;;;;;;;0.75;0.75;;;;;;;-6.98;92.60;99210.70;1727285;81;21202;-52
2021/01/30 00:42:22;;;;;;;1.67;1.35;;;;;;;-7.01;92.79;99220.39;1728696;82;21158;-52
2021/01/30 00:44:51;;;;;;;0.00;0.00;;;;;;;-7.05;92.76;99224.45;1726807;83;21153;-51
2021/01/30 00:47:19;;;;;;;0.30;0.13;;;;;;;-7.10;92.68;99226.05;1726898;82;21190;-51
2021/01/30 00:49:47;;;;;;;0.03;0.03;;;;;;;-7.16;92.61;99225.01;1727111;81;21174;-52
2021/01/30 00:52:20;;;;;;;0.00;0.00;;;;;;;-7.23;92.58;99220.97;1730404;81;21135;-51
2021/01/30 00:54:49;;;;;;;0.10;0.10;;;;;;;-7.28;92.62;99228.70;1756315;81;21170;-52
2021/01/30 00:57:17;;;;;;;0.10;0.10;;;;;;;-7.34;92.59;99236.13;1730014;81;21119;-52
2021/01/30 00:59:45;;;;;;;0.00;0.00;;;;;;;-7.45;92.49;99244.09;1729336;81;21147;-52
2021/01/30 01:02:12;;;;;;;0.55;0.42;;;;;;;-7.45;92.49;99244.09;1730286;81;21131;-51
2021/01/30 01:04:44;;;;;;;0.10;0.10;;;;;;;-7.53;92.53;99246.89;1720218;81;21176;-51
2021/01/30 01:07:15;;;;;;;8.20;1.10;;;;;;;-7.60;92.33;99246.01;1722781;81;21195;-51
2021/01/30 01:09:43;;;;;;;1.77;0.37;;;;;;;-7.92;91.40;99238.87;1719406;83;21144;-51
2021/01/30 01:12:10;;;;;;;0.10;0.10;;;;;;;-7.92;91.40;99238.87;1718867;81;21161;-51
2021/01/30 01:14:37;;;;;;;0.10;0.10;;;;;;;-8.10;91.10;99238.51;1764519;80;21652;-51
2021/01/30 01:17:05;;;;;;;0.10;0.10;;;;;;;-8.28;91.07;99239.75;1774410;80;21135;-51
2021/01/30 01:19:33;;;;;;;0.00;0.00;;;;;;;-8.41;91.00;99246.23;1734900;81;21601;-52
2021/01/30 01:22:01;;;;;;;0.00;0.00;;;;;;;-8.55;91.02;99244.47;1734487;81;21171;-51
2021/01/30 01:24:28;;;;;;;0.10;0.10;;;;;;;-8.69;90.96;99237.66;1735028;81;21218;-51
2021/01/30 01:26:55;;;;;;;0.20;0.20;;;;;;;-8.81;90.89;99249.72;1735315;81;21162;-51
2021/01/30 01:29:23;;;;;;;0.40;0.40;;;;;;;-8.89;91.12;99256.44;1734173;81;21118;-51
2021/01/30 01:31:53;;;;;;;0.08;0.08;;;;;;;-8.93;91.25;99248.53;1735025;81;21138;-51
2021/01/30 01:34:26;;;;;;;0.10;0.10;;;;;;;-9.03;90.96;99250.12;1734524;82;21693;-51
2021/01/30 01:37:03;;;;;;;0.10;0.10;;;;;;;-9.16;90.84;99248.63;1734712;82;21505;-52
2021/01/30 01:39:32;;;;;;;0.05;0.05;;;;;;;-9.25;90.87;99244.41;1750202;81;21154;-51
2021/01/30 01:42:14;;;;;;;0.10;0.10;;;;;;;-9.33;91.08;99247.46;1733524;82;21524;-51
2021/01/30 01:44:42;;;;;;;0.25;0.25;;;;;;;-9.36;91.37;99254.44;1733821;82;21148;-50
2021/01/30 01:47:23;;;;;;;0.23;0.23;;;;;;;-9.35;91.70;99256.58;1734952;82;21175;-51
2021/01/30 01:49:51;;;;;;;0.10;0.10;;;;;;;-9.34;91.89;99259.56;1735680;81;21450;-51
2021/01/30 01:52:32;;;;;;;0.00;0.00;;;;;;;-9.35;91.94;99265.33;1755950;81;21098;-52
2021/01/30 01:55:06;;;;;;;0.13;0.13;;;;;;;-9.37;91.86;99258.09;1780651;80;21108;-52
2021/01/30 01:57:33;;;;;;;0.10;0.10;;;;;;;-9.46;91.52;99267.61;1779018;80;21120;-52
2021/01/30 02:00:00;;;;;;;0.00;0.00;;;;;;;-9.54;91.58;99270.64;1779553;80;22492;-51
2021/01/30 02:02:30;;;;;;;1.05;1.05;;;;;;;-9.58;91.80;99264.06;1759482;80;21134;-51
2021/01/30 02:05:10;;;;;;;0.10;0.10;;;;;;;-9.58;92.01;99268.02;1758768;79;21123;-51
2021/01/30 02:07:40;;;;;;;0.00;0.00;;;;;;;-9.56;92.14;99267.35;1764072;81;21146;-50
2021/01/30 02:10:14;;;;;;;0.13;0.13;;;;;;;-9.63;91.81;99267.73;1788941;79;21138;-51
2021/01/30 02:12:42;;;;;;;0.10;0.10;;;;;;;-9.73;91.67;99276.42;1787905;79;21191;-51
2021/01/30 02:15:11;;;;;;;0.10;0.10;;;;;;;-9.77;91.86;99270.64;1754656;81;21118;-51
2021/01/30 02:18:04;;;;;;;0.13;0.13;;;;;;;-9.80;91.87;99267.55;1734282;79;21168;-51
2021/01/30 02:20:55;;;;;;;0.10;0.10;;;;;;;-9.84;91.87;99266.24;1741741;79;21565;-51
2021/01/30 02:23:55;;;;;;;0.10;0.10;;;;;;;-9.87;91.91;99263.96;1736272;81;21108;-51
2021/01/30 02:27:00;;;;;;;0.10;0.10;;;;;;;-9.92;91.90;99258.38;1761904;81;21166;-51
2021/01/30 02:29:48;;;;;;;0.10;0.10;;;;;;;-9.95;91.95;99256.41;1784078;79;21150;-52
2021/01/30 02:32:27;;;;;;;0.10;0.10;;;;;;;-9.98;92.03;99265.20;1785404;79;21597;-52
2021/01/30 02:35:42;;;;;;;0.20;0.20;;;;;;;-10.00;92.16;99264.05;1792890;79;21111;-51
2021/01/30 02:38:14;;;;;;;0.10;0.10;;;;;;;-10.02;92.21;99271.32;1793711;79;21145;-52
2021/01/30 02:40:45;;;;;;;0.10;0.10;;;;;;;-10.02;92.42;99267.36;1740130;81;21169;-51
2021/01/30 02:43:16;;;;;;;0.10;0.10;;;;;;;-10.02;92.41;99263.39;1774297;80;21154;-51
2021/01/30 02:45:47;;;;;;;0.10;0.10;;;;;;;-10.08;92.02;99262.79;1760961;81;21529;-51
2021/01/30 02:48:21;;;;;;;0.10;0.10;;;;;;;-10.20;91.63;99254.94;1773552;80;21686;-50
2021/01/30 02:50:53;;;;;;;0.10;0.10;;;;;;;-10.28;91.64;99258.99;1769257;79;21459;-51
2021/01/30 02:53:34;;;;;;;0.10;0.10;;;;;;;-10.30;91.80;99253.05;1761935;80;21175;-51
2021/01/30 02:56:04;;;;;;;0.23;0.23;;;;;;;-10.34;91.81;99247.78;1761076;80;21119;-51
2021/01/30 02:58:39;;;;;;;0.42;0.40;;;;;;;-10.37;91.78;99261.34;1761711;80;21095;-52
2021/01/30 03:01:06;;;;;;;0.10;0.10;;;;;;;-10.42;91.79;99254.75;1760698;80;21111;-51
2021/01/30 03:03:34;;;;;;;0.00;0.00;;;;;;;-10.46;91.83;99257.44;1785358;79;21149;-51
2021/01/30 03:06:05;;;;;;;0.28;0.28;;;;;;;-10.50;91.63;99252.17;1743826;80;21150;-50
2021/01/30 03:08:40;;;;;;;0.08;0.08;;;;;;;-10.57;91.45;99256.48;1772104;80;21146;-51
2021/01/30 03:11:19;;;;;;;0.03;0.03;;;;;;;-10.62;91.48;99250.91;1722037;81;21127;-51
2021/01/30 03:13:54;;;;;;;0.10;0.10;;;;;;;-10.59;91.65;99247.91;1749036;81;21169;-51
2021/01/30 03:16:25;;;;;;;0.10;0.10;;;;;;;-10.63;91.67;99243.48;1736302;81;21482;-51
2021/01/30 03:19:01;;;;;;;0.10;0.10;;;;;;;-10.64;91.67;99243.14;1704182;80;21194;-51
2021/01/30 03:21:29;;;;;;;0.10;0.10;;;;;;;-10.63;91.67;99246.60;1776000;80;21702;-51
2021/01/30 03:24:00;;;;;;;0.17;0.17;;;;;;;-10.70;91.41;99235.93;1768962;80;21140;-51
2021/01/30 03:26:27;;;;;;;0.30;0.30;;;;;;;-10.74;91.38;99235.12;1704801;81;21442;-52
2021/01/30 03:28:55;;;;;;;0.10;0.10;;;;;;;-10.78;91.29;99235.12;1731870;81;21501;-51
2021/01/30 03:31:23;;;;;;;0.10;0.10;;;;;;;-10.80;91.32;99230.52;1760529;81;21139;-52
2021/01/30 03:33:51;;;;;;;0.10;0.10;;;;;;;-10.81;91.31;99219.14;1754095;81;21561;-51
2021/01/30 03:36:18;;;;;;;2.15;1.95;;;;;;;-10.87;91.04;99223.30;1774410;80;21514;-51
2021/01/30 03:38:46;;;;;;;0.13;0.13;;;;;;;-10.94;90.87;99223.65;1781090;80;21135;-51
2021/01/30 03:41:13;;;;;;;0.10;0.10;;;;;;;-10.97;90.98;99225.31;1771994;80;21499;-51
2021/01/30 03:43:41;;;;;;;0.25;0.25;;;;;;;-10.98;91.09;99219.70;1733779;79;21123;-49
2021/01/30 03:46:09;;;;;;;0.10;0.10;;;;;;;-10.98;91.10;99221.52;1731961;81;21127;-51
2021/01/30 03:48:36;;;;;;;0.08;0.08;;;;;;;-10.97;91.23;99221.36;1731133;82;21158;-51
2021/01/30 03:51:04;;;;;;;0.00;0.00;;;;;;;-10.97;91.13;99224.00;1731168;82;21115;-51
2021/01/30 03:53:31;;;;;;;0.10;0.10;;;;;;;-10.97;91.11;99216.08;1731210;82;21147;-50
2021/01/30 03:55:58;;;;;;;0.10;0.10;;;;;;;-10.97;91.17;99226.64;1744115;81;21182;-51
2021/01/30 03:58:26;;;;;;;0.10;0.10;;;;;;;-10.94;91.19;99223.65;1761635;81;21244;-51
2021/01/30 04:00:53;;;;;;;1.32;1.12;;;;;;;-10.94;91.21;99222.33;1761801;80;21130;-52
2021/01/30 04:03:20;;;;;;;0.10;0.10;;;;;;;-10.92;91.16;99218.21;1775825;80;21163;-52
2021/01/30 04:05:48;;;;;;;0.00;0.00;;;;;;;-10.96;90.88;99213.75;1753240;80;21144;-51
2021/01/30 04:08:15;;;;;;;0.42;0.42;;;;;;;-11.05;90.55;99213.48;1722483;83;21140;-51
2021/01/30 04:10:43;;;;;;;0.10;0.10;;;;;;;-11.11;90.53;99204.91;1742383;81;21142;-51
2021/01/30 04:13:10;;;;;;;0.10;0.10;;;;;;;-11.20;90.42;99211.20;1741120;82;21576;-51
2021/01/30 04:15:41;;;;;;;0.10;0.10;;;;;;;-11.23;90.53;99220.78;1739290;81;21090;-52
2021/01/30 04:18:09;;;;;;;0.00;0.00;;;;;;;-11.30;90.50;99221.47;1740058;82;21174;-51
2021/01/30 04:20:36;;;;;;;0.10;0.10;;;;;;;-11.35;90.45;99218.52;1739434;82;21146;-52
2021/01/30 04:23:05;;;;;;;0.10;0.10;;;;;;;-11.38;90.49;99217.51;1754252;81;21126;-52
2021/01/30 04:25:33;;;;;;;0.10;0.10;;;;;;;-11.39;90.48;99221.66;1765419;80;21135;-51
2021/01/30 04:28:00;;;;;;;0.10;0.10;;;;;;;-11.42;90.33;99225.45;1781365;80;21111;-51
2021/01/30 04:30:28;;;;;;;1.37;1.10;;;;;;;-11.45;90.23;99225.77;1749546;80;21489;-51
2021/01/30 04:32:58;;;;;;;0.10;0.10;;;;;;;-11.50;90.12;99225.44;1737278;82;21158;-51
2021/01/30 04:35:30;;;;;;;0.10;0.10;;;;;;;-11.52;90.13;99226.10;1736609;82;21202;-51
2021/01/30 04:37:58;;;;;;;0.03;0.03;;;;;;;-11.54;90.23;99226.79;1737914;81;27443;-52
2021/01/30 04:40:38;;;;;;;0.10;0.10;;;;;;;-11.56;90.21;99231.40;1737149;82;21171;-52
2021/01/30 04:43:31;;;;;;;0.10;0.10;;;;;;;-11.56;90.37;99228.27;1737021;81;21162;-50
2021/01/30 04:46:19;;;;;;;0.10;0.10;;;;;;;-11.53;90.57;99226.60;1746149;81;21126;-51
2021/01/30 04:49:00;;;;;;;0.10;0.10;;;;;;;-11.48;90.59;99224.78;1736530;82;21217;-50
2021/01/30 04:51:51;;;;;;;0.10;0.10;;;;;;;-11.47;90.38;99222.50;1722539;83;21129;-51
2021/01/30 04:54:29;;;;;;;0.10;0.10;;;;;;;-11.50;90.22;99218.85;1740839;81;21126;-52
2021/01/30 04:57:33;;;;;;;0.20;0.20;;;;;;;-11.51;90.15;99217.22;1739481;82;21585;-51
2021/01/30 05:00:15;;;;;;;0.10;0.10;;;;;;;-11.54;89.99;99224.16;1739402;82;21577;-51
2021/01/30 05:03:24;;;;;;;1.25;1.07;;;;;;;-11.64;89.73;99216.92;1713587;80;21099;-51
2021/01/30 05:05:54;;;;;;;0.10;0.10;;;;;;;-11.69;89.81;99214.28;1730468;82;21985;-51
2021/01/30 05:08:34;;;;;;;0.10;0.10;;;;;;;-11.79;89.45;99224.17;1730299;82;21597;-51
2021/01/30 05:11:04;;;;;;;0.08;0.08;;;;;;;-11.80;89.60;99229.59;1753560;81;21150;-52
2021/01/30 05:13:37;;;;;;;0.10;0.10;;;;;;;-11.79;89.85;99221.54;1712926;81;21469;-51
2021/01/30 05:16:08;;;;;;;0.10;0.10;;;;;;;-11.76;89.78;99234.38;1770638;81;21126;-52
2021/01/30 05:18:41;;;;;;;0.10;0.10;;;;;;;-11.74;89.86;99232.41;1723679;81;21453;-52
2021/01/30 05:21:20;;;;;;;0.10;0.10;;;;;;;-11.69;90.01;99238.00;1754411;80;21521;-52
2021/01/30 05:23:51;;;;;;;0.10;0.10;;;;;;;-11.62;90.11;99228.09;1736924;80;21154;-51
2021/01/30 05:27:03;;;;;;;0.00;0.00;;;;;;;-11.59;90.11;99234.38;1714340;80;21139;-52
2021/01/30 05:29:54;;;;;;;0.40;0.40;;;;;;;-11.54;90.26;99253.97;1763880;80;21537;-52
2021/01/30 05:32:55;;;;;;;0.20;0.20;;;;;;;-11.42;90.37;99258.88;1749464;81;22055;-52
2021/01/30 05:35:34;;;;;;;0.10;0.10;;;;;;;-11.35;90.59;99268.63;1664984;85;21163;-51
2021/01/30 05:38:13;;;;;;;0.10;0.10;;;;;;;-11.26;90.56;99275.50;1730237;82;21167;-52
2021/01/30 05:40:49;;;;;;;0.20;0.20;;;;;;;-11.19;90.55;99276.17;1760469;80;21162;-51
2021/01/30 05:43:30;;;;;;;0.10;0.10;;;;;;;-11.09;90.82;99286.03;1727721;81;21179;-51
2021/01/30 05:45:58;;;;;;;0.57;0.37;;;;;;;-10.94;91.08;99286.16;1748348;80;21170;-52
2021/01/30 05:48:33;;;;;;;0.10;0.10;;;;;;;-10.84;90.99;99287.61;1744476;81;21170;-52
2021/01/30 05:51:15;;;;;;;0.10;0.10;;;;;;;-10.76;90.94;99288.58;1726848;80;21159;-51
2021/01/30 05:53:43;;;;;;;0.75;0.75;;;;;;;-10.71;90.80;99278.33;1722799;81;21173;-51
2021/01/30 05:56:11;;;;;;;2.45;1.85;;;;;;;-10.62;90.95;99278.63;1753323;81;21110;-52
2021/01/30 05:58:43;;;;;;;0.30;0.30;;;;;;;-10.53;91.11;99278.92;1767154;81;21524;-52
2021/01/30 06:01:19;;;;;;;;;;;;;;;-10.38;91.35;99284.30;1751465;81;21150;-52
2021/01/30 06:04:07;;;;;;;0.10;0.10;;;;;;;-10.24;91.52;99276.09;1744637;81;20307;-52
2021/01/30 06:06:43;;;;;;;0.23;0.23;;;;;;;-10.13;91.44;99275.70;1734038;80;21182;-52
2021/01/30 06:09:32;;;;;;;0.30;0.30;;;;;;;-9.97;91.65;99277.41;1743460;81;21701;-52
2021/01/30 06:12:03;;;;;;;0.20;0.20;;;;;;;-9.82;91.82;99276.15;1745593;81;21130;-51
2021/01/30 06:14:38;;;;;;;5.90;1.02;;;;;;;-9.66;91.88;99273.39;1733786;82;21174;-51
2021/01/30 06:17:26;;;;;;;0.17;0.17;;;;;;;-9.54;91.87;99270.64;1734372;81;21613;-51
2021/01/30 06:20:24;;;;;;;0.17;0.17;;;;;;;-9.41;91.90;99271.86;1734298;82;21182;-52
2021/01/30 06:23:12;;;;;;;0.10;0.10;;;;;;;-9.29;91.97;99263.00;1744025;81;21147;-52
2021/01/30 06:25:41;;;;;;;2.50;0.53;;;;;;;-9.13;92.07;99263.63;1762023;81;21214;-52
2021/01/30 06:28:25;;;;;;;0.23;0.23;;;;;;;-9.01;92.17;99256.58;1747677;81;21447;-52
2021/01/30 06:30:53;;;;;;;0.10;0.10;;;;;;;-8.89;92.15;99255.12;1744219;80;21714;-51
2021/01/30 06:33:34;;;;;;;0.17;0.17;;;;;;;-8.80;92.16;99240.79;1710979;82;21212;-52
2021/01/30 06:36:25;;;;;;;0.33;0.33;;;;;;;-8.70;92.16;99245.80;1759894;81;21127;-52
2021/01/30 06:39:10;;;;;;;0.20;0.20;;;;;;;-8.60;92.27;99246.34;1758496;81;21102;-52
2021/01/30 06:41:38;;;;;;;1.70;0.62;;;;;;;-8.46;92.44;99249.44;1765067;81;21465;-52
2021/01/30 06:44:27;;;;;;;0.25;0.25;;;;;;;-8.30;92.52;99233.81;1764742;81;21134;-52
2021/01/30 06:47:19;;;;;;;0.45;0.45;;;;;;;-8.14;92.50;99231.42;1739926;81;21134;-52
2021/01/30 06:49:52;;;;;;;1.55;1.27;;;;;;;-8.03;92.37;99220.84;1748663;81;21624;-52
2021/01/30 06:52:30;;;;;;;;;;;;;;;-7.91;92.31;99219.33;1734129;82;21152;-52
2021/01/30 06:55:09;;;;;;;0.05;0.05;;;;;;;-7.83;92.18;99215.20;1747150;81;20291;-51
2021/01/30 06:57:56;;;;;;;3.17;2.02;;;;;;;-7.77;92.15;99198.22;1746117;81;21186;-52
2021/01/30 07:00:33;;;;;;;4.55;2.98;;;;;;;-7.77;91.94;99192.40;1728354;82;21174;-51
2021/01/30 07:03:43;;;;;;;0.68;0.68;;;;;;;-7.79;91.81;99195.27;1761289;81;21170;-52
2021/01/30 07:06:15;;;;;;;1.35;1.27;;;;;;;-7.76;91.85;99203.82;1739855;81;21162;-51
2021/01/30 07:09:12;;;;;;;2.58;2.10;;;;;;;-7.66;92.18;99209.65;1760384;81;21158;-51
2021/01/30 07:12:10;;;;;;;1.57;1.32;;;;;;;-7.53;92.30;99199.13;1760148;81;21186;-52
2021/01/30 07:14:51;;;;;;;1.40;1.30;;;;;;;-7.36;92.32;99200.47;1757494;81;21166;-52
2021/01/30 07:17:39;;;;;;;0.93;0.90;;;;;;;-7.19;92.38;99202.32;1744691;81;21142;-52
2021/01/30 07:20:22;;;;;;;0.53;0.53;;;;;;;-7.03;92.57;99207.81;1756708;81;21127;-52
2021/01/30 07:23:16;;;;;;;0.20;0.20;;;;;;;-6.83;92.79;99198.63;1749199;81;21206;-52
2021/01/30 07:26:13;;;;;;;0.10;0.10;;;;;;;-6.47;93.09;99189.58;1729687;82;21482;-52
2021/01/30 07:29:04;;;;;;;1.10;0.62;;;;;;;-6.47;93.09;99189.58;1727926;82;21016;-52
2021/01/30 07:31:40;;;;;;;0.00;0.00;;;;;;;-6.32;93.16;99185.43;1730180;81;21498;-51
2021/01/30 07:34:37;;;;;;;0.50;0.50;;;;;;;-6.14;93.42;99191.50;1742554;81;21391;-52
2021/01/30 07:37:22;;;;;;;0.45;0.45;;;;;;;-5.98;93.47;99191.61;1658878;86;21153;-52
2021/01/30 07:39:55;;;;;;;0.85;0.85;;;;;;;-5.81;93.56;99199.50;1658482;85;21216;-51
2021/01/30 07:42:40;;;;;;;0.25;0.25;;;;;;;-5.65;93.58;99200.41;1674375;82;21525;-52
2021/01/30 07:45:32;;;;;;;0.60;0.60;;;;;;;-5.53;93.47;99192.64;1729746;82;21146;-52
2021/01/30 07:48:15;;;;;;;0.42;0.42;;;;;;;-5.40;93.35;99205.12;1729495;82;21178;-52
2021/01/30 07:50:51;;;;;;;1.50;1.07;;;;;;;-5.29;93.27;99209.83;1729955;82;21187;-52
2021/01/30 07:53:25;;;;;;;0.82;0.82;;;;;;;-5.18;93.11;99223.02;1747831;82;21230;-52
2021/01/30 07:56:12;;;;;;;1.40;1.27;;;;;;;-5.10;92.97;99222.80;1700502;82;21173;-52
2021/01/30 07:59:17;;;;;;;0.00;0.00;;;;;;;-5.03;92.85;99216.13;1729544;82;21138;-52
2021/01/30 08:02:07;;;;;;;0.00;0.00;;;;;;;-4.93;92.79;99209.05;1723378;81;21162;-52
2021/01/30 08:05:08;;;;;;;4.03;1.05;;;;;;;-4.81;92.70;99204.19;1752754;81;21169;-52
2021/01/30 08:08:11;;;;;;;0.00;0.00;;;;;;;-4.67;92.68;99196.13;1714373;81;21190;-52
2021/01/30 08:11:22;;;;;;;0.90;0.80;;;;;;;-4.52;92.58;99202.05;1742421;80;21179;-52
2021/01/30 08:13:58;;;;;;;0.20;0.20;;;;;;;-4.37;92.40;99209.77;1730007;82;21553;-52
2021/01/30 08:16:40;;;;;;;0.25;0.25;;;;;;;-4.19;92.34;99210.39;1742578;81;21174;-52
2021/01/30 08:19:15;;;;;;;0.20;0.20;;;;;;;-4.07;92.07;99207.34;1750821;81;21123;-52
2021/01/30 08:21:48;;;;;;;0.25;0.25;;;;;;;-3.99;91.88;99209.75;1759816;81;21184;-52
2021/01/30 08:24:29;;;;;;;0.35;0.35;;;;;;;-3.89;91.68;99210.09;1738222;81;21174;-52
2021/01/30 08:27:18;;;;;;;0.15;0.15;;;;;;;-3.81;91.53;99206.86;1771750;80;21135;-52
2021/01/30 08:29:48;;;;;;;0.20;0.20;;;;;;;-3.72;91.25;99206.91;1755130;81;21178;-52
2021/01/30 08:32:27;;;;;;;1.00;1.00;;;;;;;-3.63;91.14;99204.80;1741167;82;21183;-52
2021/01/30 08:37:17;;;;;;;0.03;0.03;;;;;;;-3.37;90.92;99197.88;1798401;79;27802;-52
2021/01/30 08:40:09;;;;;;;0.10;0.10;;;;;;;-3.34;90.76;99197.47;1743953;80;21147;-52
2021/01/30 08:42:53;;;;;;;0.00;0.00;;;;;;;-3.23;90.76;99199.93;1741007;82;21147;-52
2021/01/30 08:45:33;;;;;;;0.62;0.62;;;;;;;-3.14;90.57;99204.45;1737279;82;21211;-52
2021/01/30 08:48:18;;;;;;;0.40;0.40;;;;;;;-3.07;90.34;99206.55;1708001;83;21659;-52
2021/01/30 08:50:50;;;;;;;4.78;1.80;;;;;;;-3.01;90.14;99207.55;1724821;82;21113;-52
2021/01/30 08:53:25;;;;;;;1.57;1.47;;;;;;;-2.96;90.07;99209.03;1720095;81;21115;-52
2021/01/30 08:55:57;;;;;;;1.27;1.12;;;;;;;-2.88;90.01;99204.72;1712882;83;21198;-51
2021/01/30 08:58:40;;;;;;;0.30;0.30;;;;;;;-2.81;89.90;99206.28;1678829;85;21235;-52
2021/01/30 09:01:23;;;;;;;0.93;0.57;;;;;;;-2.78;89.60;99200.19;1662151;86;21184;-52
2021/01/30 09:03:58;;;;;;;0.30;0.30;;;;;;;-2.75;89.59;99187.70;1668150;84;21150;-52
2021/01/30 09:06:51;;;;;;;2.47;1.22;;;;;;;-2.73;89.48;99177.08;1674178;83;21159;-53
2021/01/30 09:09:26;;;;;;;1.12;1.10;;;;;;;-2.70;89.46;99186.52;1680204;84;21155;-52
2021/01/30 09:12:02;;;;;;;0.82;0.82;;;;;;;-2.67;89.59;99180.71;1666268;86;21198;-52
2021/01/30 09:14:34;;;;;;;4.45;2.50;;;;;;;-2.64;89.32;99181.62;1678518;84;21198;-52
2021/01/30 09:17:09;;;;;;;1.22;1.07;;;;;;;-2.67;89.23;99177.55;1694262;84;21179;-52
2021/01/30 09:20:08;;;;;;;1.55;0.50;;;;;;;-2.70;89.13;99168.61;1707105;83;21126;-52
2021/01/30 09:22:57;;;;;;;4.85;2.15;;;;;;;-2.71;89.23;99176.34;1661357;84;21179;-52
2021/01/30 09:25:35;;;;;;;1.95;1.75;;;;;;;-2.73;89.09;99174.41;1663503;84;21625;-52
2021/01/30 09:28:25;;;;;;;0.70;0.35;;;;;;;-2.76;89.15;99175.39;1678969;84;21155;-52
2021/01/30 09:31:04;;;;;;;1.35;1.15;;;;;;;-2.81;89.24;99163.50;1699648;83;21137;-52
2021/01/30 09:33:35;;;;;;;0.37;0.37;;;;;;;-2.82;89.26;99161.04;1697894;84;21591;-52
2021/01/30 09:36:30;;;;;;;1.02;0.35;;;;;;;-2.84;89.37;99160.47;1708579;83;21153;-52
2021/01/30 09:38:59;;;;;;;0.17;0.15;;;;;;;-2.82;89.55;99155.69;1681698;85;21177;-52
2021/01/30 09:41:32;;;;;;;0.70;0.62;;;;;;;-2.82;89.63;99143.16;1675330;85;21507;-52
2021/01/30 09:44:22;;;;;;;0.53;0.53;;;;;;;-2.79;89.70;99141.89;1681805;85;21268;-52
2021/01/30 09:46:56;;;;;;;0.35;0.35;;;;;;;-2.72;89.97;99133.77;1653901;86;21148;-52
2021/01/30 09:49:28;;;;;;;0.17;0.17;;;;;;;-2.67;90.03;99139.27;1674869;84;21167;-52
2021/01/30 09:51:55;;;;;;;0.43;0.43;;;;;;;-2.62;90.19;99134.89;1665239;86;21512;-52
2021/01/30 09:54:25;;;;;;;0.28;0.28;;;;;;;-2.58;90.21;99133.91;1696070;83;21146;-52
2021/01/30 09:56:56;;;;;;;0.00;0.00;;;;;;;-2.56;90.31;99130.49;1696723;83;21458;-52
2021/01/30 09:59:28;;;;;;;0.00;0.00;;;;;;;-2.54;90.30;99119.58;1731860;82;21131;-53
2021/01/30 10:02:17;;;;;;;0.72;0.33;;;;;;;-2.55;90.20;99108.56;1717662;83;21618;-53
2021/01/30 10:04:45;;;;;;;0.62;0.62;;;;;;;-2.57;90.34;99097.27;1718375;83;21132;-52
2021/01/30 10:07:15;;;;;;;0.65;0.65;;;;;;;-2.57;90.53;99102.13;1718267;83;21184;-52
2021/01/30 10:09:46;;;;;;;0.55;0.55;;;;;;;-2.57;90.72;99094.59;1736398;82;21115;-53
2021/01/30 10:12:17;;;;;;;0.37;0.37;;;;;;;-2.55;90.87;99085.30;1748221;82;21143;-52
2021/01/30 10:14:56;;;;;;;0.00;0.00;;;;;;;-2.50;91.01;99077.41;1748001;81;21147;-52
2021/01/30 10:17:31;;;;;;;0.62;0.62;;;;;;;-2.46;91.11;99065.75;1748182;82;21530;-52
2021/01/30 10:20:09;;;;;;;1.12;0.30;;;;;;;-2.41;91.26;99063.20;1744353;82;21138;-52
2021/01/30 10:22:39;;;;;;;1.22;1.17;;;;;;;-2.39;91.44;99055.77;1718244;83;21147;-52
2021/01/30 10:25:11;;;;;;;0.25;0.25;;;;;;;-2.34;91.62;99062.58;1666494;85;21172;-52
2021/01/30 10:27:38;;;;;;;1.37;0.98;;;;;;;-2.29;91.70;99058.70;1667233;84;21202;-52
2021/01/30 10:30:10;;;;;;;0.37;0.37;;;;;;;-2.27;91.88;99052.59;1666329;85;21171;-53
2021/01/30 10:32:52;;;;;;;6.65;3.12;;;;;;;-2.22;92.05;99048.70;1666687;85;21151;-52
2021/01/30 10:35:25;;;;;;;3.85;1.55;;;;;;;-2.19;92.12;99036.20;1668312;85;21247;-52
2021/01/30 10:38:00;;;;;;;0.20;0.20;;;;;;;-2.18;92.15;99037.01;1653520;85;20993;-52
2021/01/30 10:40:49;;;;;;;0.78;0.35;;;;;;;-2.22;92.20;99026.49;1666370;84;21166;-52
2021/01/30 10:43:25;;;;;;;1.65;0.60;;;;;;;-2.29;92.30;99019.09;1666262;86;21155;-52
2021/01/30 10:46:01;;;;;;;1.10;0.68;;;;;;;-2.34;92.55;99013.62;1665473;86;21200;-52
2021/01/30 10:48:33;;;;;;;0.53;0.53;;;;;;;-2.32;92.74;99004.84;1665586;86;21163;-52
2021/01/30 10:51:07;;;;;;;0.10;0.10;;;;;;;-2.29;92.97;99005.18;1665663;86;21720;-52
2021/01/30 10:53:37;;;;;;;1.10;1.10;;;;;;;-2.24;93.06;98998.61;1687383;84;21147;-52
2021/01/30 10:56:23;;;;;;;0.37;0.35;;;;;;;-2.20;93.09;99003.80;1689157;84;21174;-52
2021/01/30 10:58:52;;;;;;;0.35;0.35;;;;;;;-2.23;93.07;98998.08;1695088;84;21119;-52
2021/01/30 11:01:25;;;;;;;0.57;0.57;;;;;;;-2.25;93.13;98996.99;1687492;84;21159;-51
2021/01/30 11:04:02;;;;;;;1.05;1.05;;;;;;;-2.24;93.35;98994.59;1679061;84;21684;-52
2021/01/30 11:06:42;;;;;;;0.80;0.75;;;;;;;-2.25;93.32;98990.30;1668368;84;21187;-52
2021/01/30 11:09:26;;;;;;;2.20;2.10;;;;;;;-2.28;93.40;98989.94;1708458;83;21210;-52
2021/01/30 11:12:20;;;;;;;0.35;0.35;;;;;;;-2.30;93.59;98987.52;1684637;84;21167;-52
2021/01/30 11:14:48;;;;;;;0.88;0.88;;;;;;;-2.31;93.78;98977.84;1678331;85;21478;-52
2021/01/30 11:17:31;;;;;;;1.35;1.25;;;;;;;-2.30;94.00;98966.10;1661533;86;21151;-52
2021/01/30 11:19:58;;;;;;;0.30;0.30;;;;;;;-2.27;94.19;98964.83;1678746;85;21156;-52
2021/01/30 11:22:27;;;;;;;1.55;1.00;;;;;;;-2.26;94.34;98957.88;1636599;87;21154;-52
2021/01/30 11:25:14;;;;;;;0.72;0.72;;;;;;;-2.24;94.46;98959.81;1665140;85;21178;-52
2021/01/30 11:27:46;;;;;;;13.38;1.47;;;;;;;-2.24;94.58;98949.63;1689479;84;21450;-52
2021/01/30 11:30:22;;;;;;;0.23;0.23;;;;;;;-2.22;94.73;98943.53;1707147;83;21139;-52
2021/01/30 11:32:57;;;;;;;0.68;0.68;;;;;;;-2.18;94.94;98934.81;1688619;84;21146;-53
2021/01/30 11:35:33;;;;;;;0.10;0.10;;;;;;;-2.16;95.06;98927.34;1689308;83;21440;-52
2021/01/30 11:38:08;;;;;;;0.40;0.40;;;;;;;-2.14;95.10;98925.77;1709650;83;21161;-52
2021/01/30 11:40:36;;;;;;;5.72;2.17;;;;;;;-2.13;95.27;98927.39;1710215;82;22137;-52
2021/01/30 11:43:04;;;;;;;3.98;2.40;;;;;;;-2.09;95.42;98925.08;1708866;83;21458;-53
2021/01/30 11:45:32;;;;;;;0.37;0.33;;;;;;;-2.06;95.55;98913.90;1746440;81;21181;-52
2021/01/30 11:47:59;;;;;;;0.30;0.30;;;;;;;-2.02;95.60;98912.39;1724062;81;21473;-52
2021/01/30 11:50:27;;;;;;;0.70;0.70;;;;;;;-2.00;95.76;98915.66;1686935;83;21585;-52
2021/01/30 11:53:09;;;;;;;0.70;0.70;;;;;;;-1.97;95.86;98915.17;1681523;83;21166;-52
2021/01/30 11:55:38;;;;;;;0.90;0.65;;;;;;;-1.95;95.93;98905.05;1680346;83;21176;-52
2021/01/30 11:58:05;;;;;;;0.50;0.50;;;;;;;-1.92;96.04;98899.75;1705391;83;21489;-52
2021/01/30 12:00:33;;;;;;;0.98;0.42;;;;;;;-1.91;96.15;98902.17;1706133;83;21174;-52
2021/01/30 12:03:02;;;;;;;5.67;1.12;;;;;;;-1.90;96.24;98895.78;1686535;83;21179;-52
2021/01/30 12:05:30;;;;;;;1.42;1.02;;;;;;;-1.87;96.45;98898.52;1683199;83;21150;-52
2021/01/30 12:07:59;;;;;;;1.55;1.05;;;;;;;-1.84;96.59;98889.47;1722855;83;21146;-52
2021/01/30 12:10:27;;;;;;;1.75;1.45;;;;;;;-1.83;96.67;98885.77;1705946;83;21183;-52
2021/01/30 12:12:58;;;;;;;0.82;0.55;;;;;;;-1.84;96.72;98881.44;1675575;84;21177;-53
2021/01/30 12:15:25;;;;;;;2.20;1.10;;;;;;;-1.84;96.85;98868.05;1673990;84;21150;-53